sensor_id;sensor_type;location;lat;lon;timestamp;pressure;altitude;pressure_sealevel;temperature;humidity
29331;BME280;16331;52.528;13.342;2022-07-05T00:01:34;161520.78;;;21.15;80.28
29331;BME280;16331;52.528;13.342;2022-07-05T00:04:00;161497.28;;;21.06;81.62
29331;BME280;16331;52.528;13.342;2022-07-05T00:06:26;161461.22;;;20.93;81.90
29331;BME280;16331;52.528;13.342;2022-07-05T00:08:52;161452.91;;;20.90;80.66
29331;BME280;16331;52.528;13.342;2022-07-05T00:11:18;161451.53;;;20.90;80.95
29331;BME280;16331;52.528;13.342;2022-07-05T00:13:45;161463.97;;;20.94;79.36
29331;BME280;16331;52.528;13.342;2022-07-05T00:16:11;161448.72;;;20.89;79.86
29331;BME280;16331;52.528;13.342;2022-07-05T00:18:37;161432.13;;;20.83;78.94
29331;BME280;16331;52.528;13.342;2022-07-05T00:21:06;161518.03;;;21.14;77.75
29331;BME280;16331;52.528;13.342;2022-07-05T00:23:34;161501.41;;;21.08;77.83
29331;BME280;16331;52.528;13.342;2022-07-05T00:26:00;161498.63;;;21.07;78.37
29331;BME280;16331;52.528;13.342;2022-07-05T00:28:26;161451.53;;;20.90;79.18
29331;BME280;16331;52.528;13.342;2022-07-05T00:30:52;161433.53;;;20.83;79.59
29331;BME280;16331;52.528;13.342;2022-07-05T00:33:18;161396.13;;;20.70;80.93
29331;BME280;16331;52.528;13.342;2022-07-05T00:35:45;161414.13;;;20.76;80.17
29331;BME280;16331;52.528;13.342;2022-07-05T00:38:11;161429.38;;;20.82;79.49
29331;BME280;16331;52.528;13.342;2022-07-05T00:40:38;161423.81;;;20.80;81.08
29331;BME280;16331;52.528;13.342;2022-07-05T00:43:05;161401.69;;;20.72;80.59
29331;BME280;16331;52.528;13.342;2022-07-05T00:45:31;161398.94;;;20.71;80.86
29331;BME280;16331;52.528;13.342;2022-07-05T00:47:57;161346.34;;;20.52;84.56
29331;BME280;16331;52.528;13.342;2022-07-05T00:50:25;161336.66;;;20.48;83.74
29331;BME280;16331;52.528;13.342;2022-07-05T00:52:54;161365.69;;;20.59;83.29
29331;BME280;16331;52.528;13.342;2022-07-05T00:55:21;161390.63;;;20.68;83.42
29331;BME280;16331;52.528;13.342;2022-07-05T00:57:47;161372.63;;;20.61;89.01
29331;BME280;16331;52.528;13.342;2022-07-05T01:00:14;161336.66;;;20.48;91.44
29331;BME280;16331;52.528;13.342;2022-07-05T01:02:40;161307.56;;;20.38;96.09
29331;BME280;16331;52.528;13.342;2022-07-05T01:05:09;161281.28;;;20.28;98.85
29331;BME280;16331;52.528;13.342;2022-07-05T01:07:35;161246.69;;;20.16;100.00
29331;BME280;16331;52.528;13.342;2022-07-05T01:10:01;161220.38;;;20.06;100.00
29331;BME280;16331;52.528;13.342;2022-07-05T01:12:28;161191.34;;;19.95;100.00
29331;BME280;16331;52.528;13.342;2022-07-05T01:14:57;161174.75;;;19.89;100.00
29331;BME280;16331;52.528;13.342;2022-07-05T01:17:24;161155.38;;;19.82;100.00
29331;BME280;16331;52.528;13.342;2022-07-05T01:19:52;161116.66;;;19.68;100.00
29331;BME280;16331;52.528;13.342;2022-07-05T01:22:20;161083.44;;;19.56;100.00
29331;BME280;16331;52.528;13.342;2022-07-05T01:24:48;161003.22;;;19.27;100.00
29331;BME280;16331;52.528;13.342;2022-07-05T01:27:14;161008.81;;;19.29;100.00
29331;BME280;16331;52.528;13.342;2022-07-05T01:29:42;160967.31;;;19.14;100.00
29331;BME280;16331;52.528;13.342;2022-07-05T01:32:08;160975.59;;;19.17;100.00
29331;BME280;16331;52.528;13.342;2022-07-05T01:34:38;160968.66;;;19.15;100.00
29331;BME280;16331;52.528;13.342;2022-07-05T01:37:05;160956.22;;;19.10;100.00
29331;BME280;16331;52.528;13.342;2022-07-05T01:39:32;160945.19;;;19.06;100.00
29331;BME280;16331;52.528;13.342;2022-07-05T01:41:58;160884.34;;;18.84;100.00
29331;BME280;16331;52.528;13.342;2022-07-05T01:44:24;160858.09;;;18.74;100.00
29331;BME280;16331;52.528;13.342;2022-07-05T01:46:53;160871.91;;;18.80;100.00
29331;BME280;16331;52.528;13.342;2022-07-05T01:49:22;160892.69;;;18.87;100.00
29331;BME280;16331;52.528;13.342;2022-07-05T01:51:57;160906.47;;;18.92;100.00
29331;BME280;16331;52.528;13.342;2022-07-05T01:54:24;160871.91;;;18.80;100.00
29331;BME280;16331;52.528;13.342;2022-07-05T01:56:51;160883.00;;;18.84;100.00
29331;BME280;16331;52.528;13.342;2022-07-05T01:59:17;160870.59;;;18.79;100.00
29331;BME280;16331;52.528;13.342;2022-07-05T02:01:43;160855.34;;;18.73;100.00
29331;BME280;16331;52.528;13.342;2022-07-05T02:04:10;160859.50;;;18.75;100.00
29331;BME280;16331;52.528;13.342;2022-07-05T02:06:37;160870.59;;;18.79;100.00
29331;BME280;16331;52.528;13.342;2022-07-05T02:09:05;160840.13;;;18.68;100.00
29331;BME280;16331;52.528;13.342;2022-07-05T02:11:31;160800.13;;;18.53;100.00
29331;BME280;16331;52.528;13.342;2022-07-05T02:13:59;160748.91;;;18.35;100.00
29331;BME280;16331;52.528;13.342;2022-07-05T02:16:26;160751.66;;;18.36;100.00
29331;BME280;16331;52.528;13.342;2022-07-05T02:18:53;160768.34;;;18.42;100.00
29331;BME280;16331;52.528;13.342;2022-07-05T02:21:20;160791.78;;;18.50;100.00
29331;BME280;16331;52.528;13.342;2022-07-05T02:23:46;160743.38;;;18.33;100.00
29331;BME280;16331;52.528;13.342;2022-07-05T02:26:15;160724.06;;;18.26;100.00
29331;BME280;16331;52.528;13.342;2022-07-05T02:28:41;160732.34;;;18.29;100.00
29331;BME280;16331;52.528;13.342;2022-07-05T02:31:08;160724.06;;;18.26;100.00
29331;BME280;16331;52.528;13.342;2022-07-05T02:33:34;160748.91;;;18.35;100.00
29331;BME280;16331;52.528;13.342;2022-07-05T02:36:06;160737.91;;;18.31;100.00
29331;BME280;16331;52.528;13.342;2022-07-05T02:38:33;160721.28;;;18.25;100.00
29331;BME280;16331;52.528;13.342;2022-07-05T02:40:59;160681.22;;;18.10;100.00
29331;BME280;16331;52.528;13.342;2022-07-05T02:43:25;160693.69;;;18.15;100.00
29331;BME280;16331;52.528;13.342;2022-07-05T02:45:51;160655.00;;;18.01;100.00
29331;BME280;16331;52.528;13.342;2022-07-05T02:48:17;160664.66;;;18.04;100.00
29331;BME280;16331;52.528;13.342;2022-07-05T02:50:43;160652.25;;;18.00;100.00
29331;BME280;16331;52.528;13.342;2022-07-05T02:53:11;160577.69;;;17.73;100.00
29331;BME280;16331;52.528;13.342;2022-07-05T02:55:37;160630.16;;;17.92;100.00
29331;BME280;16331;52.528;13.342;2022-07-05T02:58:03;160588.72;;;17.77;100.00
29331;BME280;16331;52.528;13.342;2022-07-05T03:00:29;160585.97;;;17.76;100.00
29331;BME280;16331;52.528;13.342;2022-07-05T03:02:55;160612.19;;;17.85;100.00
29331;BME280;16331;52.528;13.342;2022-07-05T03:05:21;160591.50;;;17.78;100.00
29331;BME280;16331;52.528;13.342;2022-07-05T03:07:47;160597.03;;;17.80;100.00
29331;BME280;16331;52.528;13.342;2022-07-05T03:10:13;160605.31;;;17.83;100.00
29331;BME280;16331;52.528;13.342;2022-07-05T03:12:39;160585.97;;;17.76;100.00
29331;BME280;16331;52.528;13.342;2022-07-05T03:15:06;160594.25;;;17.79;100.00
29331;BME280;16331;52.528;13.342;2022-07-05T03:17:32;160574.94;;;17.72;100.00
29331;BME280;16331;52.528;13.342;2022-07-05T03:19:58;160584.56;;;17.75;100.00
29331;BME280;16331;52.528;13.342;2022-07-05T03:22:24;160565.28;;;17.68;100.00
29331;BME280;16331;52.528;13.342;2022-07-05T03:24:50;160519.72;;;17.52;100.00
29331;BME280;16331;52.528;13.342;2022-07-05T03:27:16;160540.41;;;17.59;100.00
29331;BME280;16331;52.528;13.342;2022-07-05T03:29:42;160566.63;;;17.69;100.00
29331;BME280;16331;52.528;13.342;2022-07-05T03:32:08;160554.22;;;17.64;100.00
29331;BME280;16331;52.528;13.342;2022-07-05T03:34:35;160554.22;;;17.64;100.00
29331;BME280;16331;52.528;13.342;2022-07-05T03:37:01;160566.63;;;17.69;100.00
29331;BME280;16331;52.528;13.342;2022-07-05T03:39:27;160572.16;;;17.71;100.00
29331;BME280;16331;52.528;13.342;2022-07-05T03:41:53;160568.03;;;17.69;100.00
29331;BME280;16331;52.528;13.342;2022-07-05T03:44:19;160605.31;;;17.83;100.00
29331;BME280;16331;52.528;13.342;2022-07-05T03:46:45;160601.19;;;17.81;100.00
29331;BME280;16331;52.528;13.342;2022-07-05T03:49:11;160601.19;;;17.81;100.00
29331;BME280;16331;52.528;13.342;2022-07-05T03:51:37;160588.72;;;17.77;100.00
29331;BME280;16331;52.528;13.342;2022-07-05T03:54:03;160576.28;;;17.72;100.00
29331;BME280;16331;52.528;13.342;2022-07-05T03:56:30;160581.84;;;17.74;100.00
29331;BME280;16331;52.528;13.342;2022-07-05T03:58:56;160598.38;;;17.80;100.00
29331;BME280;16331;52.528;13.342;2022-07-05T04:01:25;160609.47;;;17.84;100.00
29331;BME280;16331;52.528;13.342;2022-07-05T04:03:51;160603.94;;;17.82;100.00
29331;BME280;16331;52.528;13.342;2022-07-05T04:06:17;160631.56;;;17.92;100.00
29331;BME280;16331;52.528;13.342;2022-07-05T04:08:44;160577.69;;;17.73;100.00
29331;BME280;16331;52.528;13.342;2022-07-05T04:11:10;160620.47;;;17.88;100.00
29331;BME280;16331;52.528;13.342;2022-07-05T04:13:39;160627.41;;;17.91;100.00
29331;BME280;16331;52.528;13.342;2022-07-05T04:16:06;160668.81;;;18.06;100.00
29331;BME280;16331;52.528;13.342;2022-07-05T04:18:32;160639.81;;;17.95;100.00
29331;BME280;16331;52.528;13.342;2022-07-05T04:20:58;160693.69;;;18.15;100.00
29331;BME280;16331;52.528;13.342;2022-07-05T04:23:24;160706.13;;;18.19;100.00
29331;BME280;16331;52.528;13.342;2022-07-05T04:25:50;160690.91;;;18.14;100.00
29331;BME280;16331;52.528;13.342;2022-07-05T04:28:16;160771.06;;;18.43;100.00
29331;BME280;16331;52.528;13.342;2022-07-05T04:30:42;160812.53;;;18.58;100.00
29331;BME280;16331;52.528;13.342;2022-07-05T04:33:08;160794.56;;;18.51;100.00
29331;BME280;16331;52.528;13.342;2022-07-05T04:35:34;160917.53;;;18.96;100.00
29331;BME280;16331;52.528;13.342;2022-07-05T04:38:01;161008.81;;;19.29;100.00
29331;BME280;16331;52.528;13.342;2022-07-05T04:40:27;161145.69;;;19.79;100.00
29331;BME280;16331;52.528;13.342;2022-07-05T04:42:53;161115.28;;;19.68;100.00
29331;BME280;16331;52.528;13.342;2022-07-05T04:45:19;161080.72;;;19.55;100.00
29331;BME280;16331;52.528;13.342;2022-07-05T04:47:45;161057.19;;;19.47;100.00
29331;BME280;16331;52.528;13.342;2022-07-05T04:50:11;161030.94;;;19.37;100.00
29331;BME280;16331;52.528;13.342;2022-07-05T04:52:37;161011.59;;;19.30;100.00
29331;BME280;16331;52.528;13.342;2022-07-05T04:55:04;161039.22;;;19.40;100.00
29331;BME280;16331;52.528;13.342;2022-07-05T04:57:41;161053.03;;;19.45;100.00
29331;BME280;16331;52.528;13.342;2022-07-05T05:00:09;161084.84;;;19.57;100.00
29331;BME280;16331;52.528;13.342;2022-07-05T05:02:36;161075.16;;;19.53;100.00
29331;BME280;16331;52.528;13.342;2022-07-05T05:05:02;161042.00;;;19.41;100.00
29331;BME280;16331;52.528;13.342;2022-07-05T05:07:29;161035.06;;;19.39;100.00
29331;BME280;16331;52.528;13.342;2022-07-05T05:09:55;161105.56;;;19.64;100.00
29331;BME280;16331;52.528;13.342;2022-07-05T05:12:21;161152.63;;;19.81;100.00
29331;BME280;16331;52.528;13.342;2022-07-05T05:15:04;161133.25;;;19.74;100.00
29331;BME280;16331;52.528;13.342;2022-07-05T05:17:38;161199.63;;;19.98;100.00
29331;BME280;16331;52.528;13.342;2022-07-05T05:20:16;161292.38;;;20.32;100.00
29331;BME280;16331;52.528;13.342;2022-07-05T05:22:43;161342.19;;;20.50;100.00
29331;BME280;16331;52.528;13.342;2022-07-05T05:25:11;161451.53;;;20.90;99.45
29331;BME280;16331;52.528;13.342;2022-07-05T05:27:44;161297.91;;;20.34;100.00
29331;BME280;16331;52.528;13.342;2022-07-05T05:30:11;161302.06;;;20.36;98.15
29331;BME280;16331;52.528;13.342;2022-07-05T05:32:38;161274.38;;;20.26;97.43
29331;BME280;16331;52.528;13.342;2022-07-05T05:35:05;161230.06;;;20.09;99.26
29331;BME280;16331;52.528;13.342;2022-07-05T05:37:51;161231.47;;;20.10;96.23
29331;BME280;16331;52.528;13.342;2022-07-05T05:40:19;161241.16;;;20.13;95.42
29331;BME280;16331;52.528;13.342;2022-07-05T05:42:45;161263.34;;;20.22;93.84
29331;BME280;16331;52.528;13.342;2022-07-05T05:45:12;161250.84;;;20.17;92.08
29331;BME280;16331;52.528;13.342;2022-07-05T05:47:52;161304.81;;;20.37;89.90
29331;BME280;16331;52.528;13.342;2022-07-05T05:50:20;161321.41;;;20.43;89.41
29331;BME280;16331;52.528;13.342;2022-07-05T05:52:47;161379.53;;;20.64;86.86
29331;BME280;16331;52.528;13.342;2022-07-05T05:55:13;161328.34;;;20.45;84.67
29331;BME280;16331;52.528;13.342;2022-07-05T05:57:39;161274.38;;;20.26;83.88
29331;BME280;16331;52.528;13.342;2022-07-05T06:00:06;161379.53;;;20.64;81.35
29331;BME280;16331;52.528;13.342;2022-07-05T06:02:33;161444.56;;;20.87;79.62
29331;BME280;16331;52.528;13.342;2022-07-05T06:04:59;161475.13;;;20.98;79.26
29331;BME280;16331;52.528;13.342;2022-07-05T06:07:25;161433.53;;;20.83;79.51
29331;BME280;16331;52.528;13.342;2022-07-05T06:09:51;161518.03;;;21.14;78.27
29331;BME280;16331;52.528;13.342;2022-07-05T06:12:17;161577.53;;;21.35;76.07
29331;BME280;16331;52.528;13.342;2022-07-05T06:14:43;161541.53;;;21.22;76.45
29331;BME280;16331;52.528;13.342;2022-07-05T06:17:10;161541.53;;;21.22;76.40
29331;BME280;16331;52.528;13.342;2022-07-05T06:19:36;161504.16;;;21.09;77.08
29331;BME280;16331;52.528;13.342;2022-07-05T06:22:02;161540.19;;;21.22;77.30
29331;BME280;16331;52.528;13.342;2022-07-05T06:24:28;161488.91;;;21.03;77.99
29331;BME280;16331;52.528;13.342;2022-07-05T06:26:54;161527.72;;;21.17;78.26
29331;BME280;16331;52.528;13.342;2022-07-05T06:29:20;161526.31;;;21.17;77.72
29331;BME280;16331;52.528;13.342;2022-07-05T06:31:46;161667.56;;;21.68;76.00
29331;BME280;16331;52.528;13.342;2022-07-05T06:34:12;161717.50;;;21.86;74.65
29331;BME280;16331;52.528;13.342;2022-07-05T06:36:38;161650.97;;;21.62;76.84
29331;BME280;16331;52.528;13.342;2022-07-05T06:39:04;161605.25;;;21.45;77.41
29331;BME280;16331;52.528;13.342;2022-07-05T06:41:30;161598.34;;;21.43;78.80
29331;BME280;16331;52.528;13.342;2022-07-05T06:43:56;161652.31;;;21.63;78.11
29331;BME280;16331;52.528;13.342;2022-07-05T06:46:23;161728.56;;;21.90;75.02
29331;BME280;16331;52.528;13.342;2022-07-05T06:48:49;161770.16;;;22.05;75.24
29331;BME280;16331;52.528;13.342;2022-07-05T06:51:16;161695.34;;;21.78;77.32
29331;BME280;16331;52.528;13.342;2022-07-05T06:53:42;161689.78;;;21.76;76.66
29331;BME280;16331;52.528;13.342;2022-07-05T06:56:08;161725.81;;;21.89;75.81
29331;BME280;16331;52.528;13.342;2022-07-05T06:58:34;161746.56;;;21.97;75.50
29331;BME280;16331;52.528;13.342;2022-07-05T07:01:00;161813.06;;;22.21;74.67
29331;BME280;16331;52.528;13.342;2022-07-05T07:03:26;161833.84;;;22.28;74.20
29331;BME280;16331;52.528;13.342;2022-07-05T07:05:52;161854.66;;;22.36;73.36
29331;BME280;16331;52.528;13.342;2022-07-05T07:08:18;161881.00;;;22.45;72.07
29331;BME280;16331;52.528;13.342;2022-07-05T07:11:03;161858.81;;;22.37;71.21
29331;BME280;16331;52.528;13.342;2022-07-05T07:13:29;161950.34;;;22.70;66.82
29331;BME280;16331;52.528;13.342;2022-07-05T07:15:55;161878.19;;;22.44;67.85
29331;BME280;16331;52.528;13.342;2022-07-05T07:18:22;161897.63;;;22.51;67.19
29331;BME280;16331;52.528;13.342;2022-07-05T07:20:48;161955.91;;;22.72;65.14
29331;BME280;16331;52.528;13.342;2022-07-05T07:23:14;161954.50;;;22.72;65.41
29331;BME280;16331;52.528;13.342;2022-07-05T07:25:42;162015.47;;;22.94;63.78
29331;BME280;16331;52.528;13.342;2022-07-05T07:28:08;162014.13;;;22.94;63.48
29331;BME280;16331;52.528;13.342;2022-07-05T07:30:34;161976.66;;;22.80;64.84
29331;BME280;16331;52.528;13.342;2022-07-05T07:33:00;161980.84;;;22.81;63.54
29331;BME280;16331;52.528;13.342;2022-07-05T07:35:26;161947.59;;;22.69;65.56
29331;BME280;16331;52.528;13.342;2022-07-05T07:37:52;161940.63;;;22.67;66.13
29331;BME280;16331;52.528;13.342;2022-07-05T07:40:19;162012.72;;;22.93;65.17
29331;BME280;16331;52.528;13.342;2022-07-05T07:42:45;162075.13;;;23.16;64.81
29331;BME280;16331;52.528;13.342;2022-07-05T07:45:11;162045.97;;;23.05;64.48
29331;BME280;16331;52.528;13.342;2022-07-05T07:47:37;162000.25;;;22.88;66.45
29331;BME280;16331;52.528;13.342;2022-07-05T07:50:04;161968.38;;;22.77;64.78
29331;BME280;16331;52.528;13.342;2022-07-05T07:52:31;162000.25;;;22.88;65.29
29331;BME280;16331;52.528;13.342;2022-07-05T07:55:00;162059.84;;;23.10;63.55
29331;BME280;16331;52.528;13.342;2022-07-05T07:57:26;162116.75;;;23.31;62.51
29331;BME280;16331;52.528;13.342;2022-07-05T07:59:52;162097.31;;;23.24;63.03
29331;BME280;16331;52.528;13.342;2022-07-05T08:02:18;162115.41;;;23.30;62.79
29331;BME280;16331;52.528;13.342;2022-07-05T08:04:47;162108.44;;;23.28;62.60
29331;BME280;16331;52.528;13.342;2022-07-05T08:07:14;162104.28;;;23.26;63.70
29331;BME280;16331;52.528;13.342;2022-07-05T08:09:40;162083.44;;;23.19;62.98
29331;BME280;16331;52.528;13.342;2022-07-05T08:12:06;162125.13;;;23.34;62.85
29331;BME280;16331;52.528;13.342;2022-07-05T08:14:33;162145.91;;;23.41;62.50
29331;BME280;16331;52.528;13.342;2022-07-05T08:16:59;162111.25;;;23.29;62.46
29331;BME280;16331;52.528;13.342;2022-07-05T08:19:25;162155.63;;;23.45;62.36
29331;BME280;16331;52.528;13.342;2022-07-05T08:22:09;162187.50;;;23.56;61.11
29331;BME280;16331;52.528;13.342;2022-07-05T08:24:37;162130.63;;;23.36;63.55
29331;BME280;16331;52.528;13.342;2022-07-05T08:27:04;162188.88;;;23.57;62.45
29331;BME280;16331;52.528;13.342;2022-07-05T08:29:30;162166.69;;;23.49;63.61
29331;BME280;16331;52.528;13.342;2022-07-05T08:31:56;162206.94;;;23.63;62.41
29331;BME280;16331;52.528;13.342;2022-07-05T08:34:23;162200.00;;;23.61;61.65
29331;BME280;16331;52.528;13.342;2022-07-05T08:36:49;162152.81;;;23.44;63.32
29331;BME280;16331;52.528;13.342;2022-07-05T08:39:15;162205.53;;;23.63;63.70
29331;BME280;16331;52.528;13.342;2022-07-05T08:41:43;162306.84;;;23.99;61.70
29331;BME280;16331;52.528;13.342;2022-07-05T08:44:09;162366.56;;;24.21;59.61
29331;BME280;16331;52.528;13.342;2022-07-05T08:46:39;162320.72;;;24.04;60.65
29331;BME280;16331;52.528;13.342;2022-07-05T08:49:06;162280.44;;;23.90;61.21
29331;BME280;16331;52.528;13.342;2022-07-05T08:51:35;162319.38;;;24.04;60.84
29331;BME280;16331;52.528;13.342;2022-07-05T08:54:02;162230.53;;;23.72;59.69
29331;BME280;16331;52.528;13.342;2022-07-05T08:56:29;162274.94;;;23.88;59.99
29331;BME280;16331;52.528;13.342;2022-07-05T08:58:56;162316.56;;;24.03;59.59
29331;BME280;16331;52.528;13.342;2022-07-05T09:01:23;162374.88;;;24.24;57.67
29331;BME280;16331;52.528;13.342;2022-07-05T09:03:51;162430.41;;;24.44;56.92
29331;BME280;16331;52.528;13.342;2022-07-05T09:06:21;162517.91;;;24.76;54.77
29331;BME280;16331;52.528;13.342;2022-07-05T09:08:49;162472.03;;;24.59;55.28
29331;BME280;16331;52.528;13.342;2022-07-05T09:11:17;162459.56;;;24.55;55.57
29331;BME280;16331;52.528;13.342;2022-07-05T09:13:50;162427.59;;;24.43;56.82
29331;BME280;16331;52.528;13.342;2022-07-05T09:16:16;162377.63;;;24.25;58.57
29331;BME280;16331;52.528;13.342;2022-07-05T09:18:47;162380.44;;;24.26;58.72
29331;BME280;16331;52.528;13.342;2022-07-05T09:21:18;162402.66;;;24.34;57.49
29331;BME280;16331;52.528;13.342;2022-07-05T09:23:52;162458.16;;;24.54;57.40
29331;BME280;16331;52.528;13.342;2022-07-05T09:26:20;162417.88;;;24.40;59.04
29331;BME280;16331;52.528;13.342;2022-07-05T09:28:56;162413.72;;;24.38;59.62
29331;BME280;16331;52.528;13.342;2022-07-05T09:31:45;162388.75;;;24.29;59.46
29331;BME280;16331;52.528;13.342;2022-07-05T09:34:16;162467.88;;;24.58;59.93
29331;BME280;16331;52.528;13.342;2022-07-05T09:36:59;162562.34;;;24.92;57.00
29331;BME280;16331;52.528;13.342;2022-07-05T09:42:09;162358.22;;;24.18;60.05
29331;BME280;16331;52.528;13.342;2022-07-05T09:44:46;162491.50;;;24.66;58.65
29331;BME280;16331;52.528;13.342;2022-07-05T09:47:15;162415.13;;;24.39;58.38
29331;BME280;16331;52.528;13.342;2022-07-05T09:49:50;162423.44;;;24.42;58.27
29331;BME280;16331;52.528;13.342;2022-07-05T09:55:11;162479.00;;;24.62;58.20
29331;BME280;16331;52.528;13.342;2022-07-05T09:57:39;162499.88;;;24.69;57.15
29331;BME280;16331;52.528;13.342;2022-07-05T10:00:16;162469.28;;;24.58;57.51
29331;BME280;16331;52.528;13.342;2022-07-05T10:02:46;162558.19;;;24.90;56.61
29331;BME280;16331;52.528;13.342;2022-07-05T10:05:16;162595.66;;;25.04;56.10
29331;BME280;16331;52.528;13.342;2022-07-05T10:07:45;162663.72;;;25.28;55.56
29331;BME280;16331;52.528;13.342;2022-07-05T10:10:16;162756.84;;;25.62;53.29
29331;BME280;16331;52.528;13.342;2022-07-05T10:12:44;162622.03;;;25.13;54.00
29331;BME280;16331;52.528;13.342;2022-07-05T10:15:12;162719.31;;;25.48;53.63
29331;BME280;16331;52.528;13.342;2022-07-05T10:17:42;162679.03;;;25.34;53.48
29331;BME280;16331;52.528;13.342;2022-07-05T10:20:13;162755.44;;;25.61;53.89
29331;BME280;16331;52.528;13.342;2022-07-05T10:22:40;162863.91;;;26.01;51.29
29331;BME280;16331;52.528;13.342;2022-07-05T10:25:07;162736.03;;;25.54;51.66
29331;BME280;16331;52.528;13.342;2022-07-05T10:27:33;162541.50;;;24.84;53.06
29331;BME280;16331;52.528;13.342;2022-07-05T10:30:02;162431.78;;;24.45;55.63
29331;BME280;16331;52.528;13.342;2022-07-05T10:32:29;162559.53;;;24.91;55.01
29331;BME280;16331;52.528;13.342;2022-07-05T10:34:58;162774.91;;;25.69;52.23
29331;BME280;16331;52.528;13.342;2022-07-05T10:37:28;162713.81;;;25.46;51.03
29331;BME280;16331;52.528;13.342;2022-07-05T10:40:00;162755.44;;;25.61;49.73
29331;BME280;16331;52.528;13.342;2022-07-05T10:42:50;162763.78;;;25.64;49.73
29331;BME280;16331;52.528;13.342;2022-07-05T10:45:33;162638.75;;;25.19;51.05
29331;BME280;16331;52.528;13.342;2022-07-05T10:48:21;162749.88;;;25.59;50.34
29331;BME280;16331;52.528;13.342;2022-07-05T10:50:55;162626.19;;;25.15;50.00
29331;BME280;16331;52.528;13.342;2022-07-05T10:53:25;162794.34;;;25.76;49.68
29331;BME280;16331;52.528;13.342;2022-07-05T10:55:57;162855.53;;;25.98;48.40
29331;BME280;16331;52.528;13.342;2022-07-05T10:58:26;162742.94;;;25.57;49.94
29331;BME280;16331;52.528;13.342;2022-07-05T11:01:32;162660.97;;;25.27;51.51
29331;BME280;16331;52.528;13.342;2022-07-05T11:06:30;162877.81;;;26.06;49.28
29331;BME280;16331;52.528;13.342;2022-07-05T11:11:37;162987.63;;;26.45;47.02
29331;BME280;16331;52.528;13.342;2022-07-05T11:17:10;162627.59;;;25.15;51.16
29331;BME280;16331;52.528;13.342;2022-07-05T11:20:09;162687.41;;;25.37;51.27
29331;BME280;16331;52.528;13.342;2022-07-05T11:22:41;162786.00;;;25.73;50.00
29331;BME280;16331;52.528;13.342;2022-07-05T11:25:09;162777.69;;;25.70;49.04
29331;BME280;16331;52.528;13.342;2022-07-05T11:27:36;162945.88;;;26.30;48.35
29331;BME280;16331;52.528;13.342;2022-07-05T11:30:23;163167.00;;;27.10;45.40
29331;BME280;16331;52.528;13.342;2022-07-05T11:32:49;163402.25;;;27.95;43.21
29331;BME280;16331;52.528;13.342;2022-07-05T11:35:17;163445.44;;;28.10;42.31
29331;BME280;16331;52.528;13.342;2022-07-05T11:38:02;163754.66;;;29.22;40.57
29331;BME280;16331;52.528;13.342;2022-07-05T11:40:31;164147.84;;;30.63;37.76
29331;BME280;16331;52.528;13.342;2022-07-05T11:42:58;164556.78;;;32.10;35.86
29331;BME280;16331;52.528;13.342;2022-07-05T11:45:24;164033.47;;;30.22;35.66
29331;BME280;16331;52.528;13.342;2022-07-05T11:47:55;164080.91;;;30.39;36.27
29331;BME280;16331;52.528;13.342;2022-07-05T11:50:31;164235.75;;;30.95;34.74
29331;BME280;16331;52.528;13.342;2022-07-05T11:52:59;164365.53;;;31.42;34.77
29331;BME280;16331;52.528;13.342;2022-07-05T11:55:27;164560.97;;;32.12;33.35
29331;BME280;16331;52.528;13.342;2022-07-05T11:57:54;164019.53;;;30.17;35.56
29331;BME280;16331;52.528;13.342;2022-07-05T12:00:28;163481.66;;;28.23;38.50
29331;BME280;16331;52.528;13.342;2022-07-05T12:02:54;163206.00;;;27.24;41.06
29331;BME280;16331;52.528;13.342;2022-07-05T12:05:20;163577.75;;;28.58;39.12
29331;BME280;16331;52.528;13.342;2022-07-05T12:07:51;163849.41;;;29.56;36.94
29331;BME280;16331;52.528;13.342;2022-07-05T12:10:17;163732.38;;;29.14;37.56
29331;BME280;16331;52.528;13.342;2022-07-05T12:13:07;164128.31;;;30.56;35.98
29331;BME280;16331;52.528;13.342;2022-07-05T12:15:35;164177.09;;;30.74;34.94
29331;BME280;16331;52.528;13.342;2022-07-05T12:18:03;163672.47;;;28.92;37.24
29331;BME280;16331;52.528;13.342;2022-07-05T12:20:30;163620.91;;;28.74;37.67
29331;BME280;16331;52.528;13.342;2022-07-05T12:22:57;163385.56;;;27.89;38.35
29331;BME280;16331;52.528;13.342;2022-07-05T12:25:25;163509.44;;;28.33;38.61
29331;BME280;16331;52.528;13.342;2022-07-05T12:27:53;163937.25;;;29.88;35.80
29331;BME280;16331;52.528;13.342;2022-07-05T12:30:20;164110.16;;;30.50;35.29
29331;BME280;16331;52.528;13.342;2022-07-05T12:38:00;164545.59;;;32.06;32.16
29331;BME280;16331;52.528;13.342;2022-07-05T12:40:28;164100.41;;;30.46;33.78
29331;BME280;16331;52.528;13.342;2022-07-05T12:43:11;163664.09;;;28.89;36.14
29331;BME280;16331;52.528;13.342;2022-07-05T12:45:39;163350.72;;;27.76;38.89
29331;BME280;16331;52.528;13.342;2022-07-05T12:48:07;163432.94;;;28.06;38.93
29331;BME280;16331;52.528;13.342;2022-07-05T12:50:50;163864.72;;;29.61;36.56
29331;BME280;16331;52.528;13.342;2022-07-05T12:53:17;164219.03;;;30.89;33.81
29331;BME280;16331;52.528;13.342;2022-07-05T12:56:05;164757.91;;;32.83;31.82
29331;BME280;16331;52.528;13.342;2022-07-05T12:58:58;164614.03;;;32.31;30.98
29331;BME280;16331;52.528;13.342;2022-07-05T13:01:38;164725.78;;;32.71;30.49